createdAt,value
2017-12-13T00:00:32.315Z,97842.59
2017-12-13T00:01:35.376Z,97846.30
2017-12-13T00:02:38.336Z,97842.76
2017-12-13T00:03:41.303Z,97842.95
2017-12-13T00:04:44.275Z,97856.31
2017-12-13T00:05:47.534Z,97851.36
2017-12-13T00:06:50.504Z,97853.20
2017-12-13T00:07:53.434Z,97847.84
2017-12-13T00:08:56.373Z,97841.73
2017-12-13T00:09:59.310Z,97843.84
2017-12-13T00:11:02.287Z,97836.23
2017-12-13T00:12:05.513Z,97839.59
2017-12-13T00:13:08.447Z,97836.46
2017-12-13T00:14:11.408Z,97841.14
2017-12-13T00:15:14.434Z,97854.80
2017-12-13T00:16:17.576Z,97845.09
2017-12-13T00:17:20.587Z,97842.13
2017-12-13T00:18:23.827Z,97846.27
2017-12-13T00:19:26.755Z,97843.22
2017-12-13T00:20:29.606Z,97843.63
2017-12-13T00:21:32.537Z,97837.05
2017-12-13T00:22:35.485Z,97842.53
2017-12-13T00:23:38.419Z,97838.50
2017-12-13T00:24:41.673Z,97845.06
2017-12-13T00:25:44.615Z,97845.09
2017-12-13T00:26:47.635Z,97835.19
2017-12-13T00:27:50.567Z,97845.61
2017-12-13T00:28:53.537Z,97838.02
2017-12-13T00:29:56.515Z,97832.36
2017-12-13T00:30:59.776Z,97839.05
2017-12-13T00:32:02.653Z,97829.73
2017-12-13T00:33:05.628Z,97827.80
2017-12-13T00:34:08.665Z,97827.47
2017-12-13T00:35:12.508Z,97835.41
2017-12-13T00:36:15.517Z,97837.55
2017-12-13T00:37:18.746Z,97830.94
2017-12-13T00:38:21.672Z,97835.77
2017-12-13T00:39:24.576Z,97833.58
2017-12-13T00:40:27.515Z,97844.80
2017-12-13T00:41:30.454Z,97837.39
2017-12-13T00:42:33.364Z,97829.35
2017-12-13T00:43:36.257Z,97841.83
2017-12-13T00:44:39.230Z,97830.19
2017-12-13T00:45:42.142Z,97826.63
2017-12-13T00:46:45.098Z,97830.57
2017-12-13T00:47:48.009Z,97823.64
2017-12-13T00:48:50.994Z,97827.26
2017-12-13T00:49:54.228Z,97834.02
2017-12-13T00:50:57.156Z,97829.95
2017-12-13T00:52:00.130Z,97830.31
2017-12-13T00:53:03.127Z,97829.20
2017-12-13T00:54:06.087Z,97825.42
2017-12-13T00:55:08.997Z,97831.30
2017-12-13T00:56:12.227Z,97820.82
2017-12-13T00:57:15.207Z,97832.44
2017-12-13T00:58:18.144Z,97828.20
2017-12-13T00:59:21.072Z,97841.67
2017-12-13T01:00:24.002Z,97812.69
2017-12-13T01:01:26.908Z,97827.26
2017-12-13T01:02:30.094Z,97819.42
2017-12-13T01:03:33.043Z,97820.44
2017-12-13T01:04:35.956Z,97818.88
2017-12-13T01:05:38.949Z,97820.28
2017-12-13T01:06:41.896Z,97821.80
2017-12-13T01:07:44.851Z,97830.55
2017-12-13T01:08:48.126Z,97824.67
2017-12-13T01:09:51.113Z,97830.66
2017-12-13T01:10:54.032Z,97832.83
2017-12-13T01:11:56.924Z,97833.09
2017-12-13T01:12:59.855Z,97831.48
2017-12-13T01:14:02.836Z,97839.76
2017-12-13T01:15:06.095Z,97842.45
2017-12-13T01:16:09.061Z,97830.08
2017-12-13T01:17:12.026Z,97831.88
2017-12-13T01:18:14.948Z,97825.71
2017-12-13T01:19:17.869Z,97825.92
2017-12-13T01:20:20.768Z,97824.00
2017-12-13T01:21:23.983Z,97821.42
2017-12-13T01:22:26.952Z,97826.90
2017-12-13T01:23:29.884Z,97823.54
2017-12-13T01:24:32.815Z,97822.02
2017-12-13T01:25:35.762Z,97821.31
2017-12-13T01:26:38.797Z,97821.86
2017-12-13T01:27:42.135Z,97821.57
2017-12-13T01:28:45.132Z,97824.89
2017-12-13T01:29:48.097Z,97820.77
2017-12-13T01:30:51.057Z,97825.73
2017-12-13T01:31:53.960Z,97820.17
2017-12-13T01:32:56.902Z,97832.41
2017-12-13T01:34:00.208Z,97827.14
2017-12-13T01:35:03.154Z,97826.11
2017-12-13T01:36:06.070Z,97820.20
2017-12-13T01:37:08.972Z,97818.45
2017-12-13T01:38:11.876Z,97819.22
2017-12-13T01:39:14.785Z,97807.81
2017-12-13T01:40:17.985Z,97808.72
2017-12-13T01:41:20.927Z,97814.36
2017-12-13T01:42:24.837Z,97815.50
2017-12-13T01:43:27.729Z,97814.90
2017-12-13T01:44:30.624Z,97814.23
2017-12-13T01:45:33.525Z,97812.47
2017-12-13T01:46:36.744Z,97813.66
2017-12-13T01:47:39.711Z,97814.77
2017-12-13T01:48:42.631Z,97807.11
2017-12-13T01:49:45.602Z,97809.20
2017-12-13T01:50:48.557Z,97803.13
2017-12-13T01:51:51.476Z,97800.55
2017-12-13T01:52:54.667Z,97797.67
2017-12-13T01:53:57.969Z,97806.16
2017-12-13T01:55:00.878Z,97807.29
2017-12-13T01:56:03.841Z,97800.96
2017-12-13T01:57:06.830Z,97798.40
2017-12-13T01:58:09.795Z,97795.58
2017-12-13T01:59:13.006Z,97793.14
2017-12-13T02:00:15.923Z,97792.01
2017-12-13T02:01:18.845Z,97791.65
2017-12-13T02:02:21.816Z,97785.88
2017-12-13T02:03:24.754Z,97781.84
2017-12-13T02:04:27.658Z,97782.50
2017-12-13T02:05:36.094Z,97780.92
2017-12-13T02:06:39.256Z,97774.22
2017-12-13T02:07:42.467Z,97774.41
2017-12-13T02:08:45.312Z,97768.25
2017-12-13T02:09:48.174Z,97768.58
2017-12-13T02:10:51.032Z,97763.05
2017-12-13T02:11:54.217Z,97763.13
2017-12-13T02:12:57.075Z,97762.66
2017-12-13T02:14:00.006Z,97761.50
2017-12-13T02:15:02.906Z,97763.39
2017-12-13T02:16:05.822Z,97759.43
2017-12-13T02:17:08.715Z,97761.01
2017-12-13T02:18:11.643Z,97766.16
2017-12-13T02:19:14.606Z,97752.84
2017-12-13T02:20:17.537Z,97756.04
2017-12-13T02:21:20.883Z,97760.44
2017-12-13T02:22:24.079Z,97757.56
2017-12-13T02:23:26.982Z,97754.39
2017-12-13T02:24:30.317Z,97757.59
2017-12-13T02:25:33.260Z,97766.38
2017-12-13T02:26:36.136Z,97753.84
2017-12-13T02:27:39.785Z,97752.14
2017-12-13T02:28:42.625Z,97752.98
2017-12-13T02:29:45.596Z,97750.83
2017-12-13T02:30:48.773Z,97755.83
2017-12-13T02:31:51.737Z,97744.74
2017-12-13T02:32:54.658Z,97746.99
2017-12-13T02:33:57.467Z,97746.70
2017-12-13T02:35:00.439Z,97744.77
2017-12-13T02:36:03.473Z,97749.14
2017-12-13T02:37:06.750Z,97746.45
2017-12-13T02:38:09.729Z,97745.05
2017-12-13T02:39:12.710Z,97739.23
2017-12-13T02:40:15.791Z,97739.19
2017-12-13T02:41:18.794Z,97740.79
2017-12-13T02:42:21.730Z,97748.16
2017-12-13T02:43:25.058Z,97751.34
2017-12-13T02:44:28.051Z,97757.41
2017-12-13T02:45:30.885Z,97750.51
2017-12-13T02:46:33.731Z,97747.69
2017-12-13T02:47:36.671Z,97746.55
2017-12-13T02:48:39.610Z,97749.11
2017-12-13T02:49:42.852Z,97738.41
2017-12-13T02:50:45.825Z,97733.73
2017-12-13T02:51:48.832Z,97729.77
2017-12-13T02:52:51.765Z,97730.81
2017-12-13T02:53:54.718Z,97726.31
2017-12-13T02:54:57.670Z,97718.94
2017-12-13T02:56:00.898Z,97725.52
2017-12-13T02:57:03.867Z,97720.96
2017-12-13T02:58:09.703Z,97703.80
2017-12-13T02:59:12.686Z,97705.70
2017-12-13T03:00:15.673Z,97699.27
2017-12-13T03:01:18.696Z,97697.13
2017-12-13T03:02:21.940Z,97684.77
2017-12-13T03:03:25.031Z,97687.48
2017-12-13T03:04:28.073Z,97687.66
2017-12-13T03:05:31.107Z,97686.11
2017-12-13T03:06:34.086Z,97694.19
2017-12-13T03:07:37.463Z,97690.48
2017-12-13T03:08:40.747Z,97685.08
2017-12-13T03:09:43.665Z,97682.67
2017-12-13T03:10:46.650Z,97684.37
2017-12-13T03:11:49.683Z,97686.48
2017-12-13T03:12:52.728Z,97692.03
2017-12-13T03:13:55.915Z,97693.22
2017-12-13T03:14:59.481Z,97690.70
2017-12-13T03:16:02.882Z,97696.16
2017-12-13T03:17:05.873Z,97691.94
2017-12-13T03:18:08.865Z,97690.07
2017-12-13T03:19:12.546Z,97683.27
2017-12-13T03:20:16.464Z,97679.62
2017-12-13T03:21:19.644Z,97687.83
2017-12-13T03:22:22.581Z,97684.71
2017-12-13T03:23:25.565Z,97680.41
2017-12-13T03:24:28.496Z,97678.45
2017-12-13T03:25:31.429Z,97680.36
2017-12-13T03:26:34.388Z,97681.52
2017-12-13T03:27:37.593Z,97688.25
2017-12-13T03:28:40.562Z,97682.78
2017-12-13T03:29:43.501Z,97678.03
2017-12-13T03:30:46.422Z,97676.23
2017-12-13T03:31:49.330Z,97676.25
2017-12-13T03:32:52.312Z,97682.16
2017-12-13T03:33:55.536Z,97683.98
2017-12-13T03:34:58.483Z,97682.27
2017-12-13T03:36:01.339Z,97687.92
2017-12-13T03:37:04.274Z,97686.74
2017-12-13T03:38:07.239Z,97687.62
2017-12-13T03:39:10.468Z,97688.70
2017-12-13T03:40:13.758Z,97680.42
2017-12-13T03:41:16.728Z,97678.91
2017-12-13T03:42:19.547Z,97682.36
2017-12-13T03:43:22.364Z,97685.77
2017-12-13T03:44:25.183Z,97677.29
2017-12-13T03:45:28.061Z,97675.17
2017-12-13T03:46:31.271Z,97673.44
2017-12-13T03:47:34.128Z,97674.76
2017-12-13T03:48:37.040Z,97673.54
2017-12-13T03:49:39.916Z,97675.84
2017-12-13T03:50:42.848Z,97672.48
2017-12-13T03:51:45.718Z,97668.05
2017-12-13T03:52:48.614Z,97660.53
2017-12-13T03:53:51.474Z,97661.72
2017-12-13T03:54:54.362Z,97659.06
2017-12-13T03:55:57.269Z,97651.18
2017-12-13T03:57:00.160Z,97657.91
2017-12-13T03:58:03.023Z,97658.82
2017-12-13T03:59:06.167Z,97654.81
2017-12-13T04:00:09.085Z,97641.36
2017-12-13T04:01:12.043Z,97642.91
2017-12-13T04:02:15.007Z,97643.86
2017-12-13T04:03:18.047Z,97651.75
2017-12-13T04:04:20.950Z,97650.22
2017-12-13T04:05:24.170Z,97642.91
2017-12-13T04:06:27.143Z,97638.68
2017-12-13T04:07:30.130Z,97636.36
2017-12-13T04:08:33.068Z,97634.45
2017-12-13T04:09:35.960Z,97635.16
2017-12-13T04:10:38.832Z,97633.63
2017-12-13T04:11:41.992Z,97632.94
2017-12-13T04:12:44.923Z,97626.77
2017-12-13T04:13:47.799Z,97628.90
2017-12-13T04:14:50.786Z,97630.39
2017-12-13T04:15:53.683Z,97630.68
2017-12-13T04:16:56.625Z,97622.44
2017-12-13T04:17:59.834Z,97622.02
2017-12-13T04:19:02.857Z,97621.77
2017-12-13T04:20:05.766Z,97620.89
2017-12-13T04:21:08.722Z,97628.23
2017-12-13T04:22:11.661Z,97623.83
2017-12-13T04:23:14.696Z,97623.81
2017-12-13T04:24:17.910Z,97621.23
2017-12-13T04:25:20.896Z,97620.12
2017-12-13T04:26:23.860Z,97623.91
2017-12-13T04:27:26.999Z,97618.72
2017-12-13T04:28:29.949Z,97624.85
2017-12-13T04:29:32.866Z,97629.45
2017-12-13T04:30:36.092Z,97620.83
2017-12-13T04:31:38.999Z,97630.63
2017-12-13T04:32:41.925Z,97623.81
2017-12-13T04:33:44.916Z,97626.02
2017-12-13T04:34:47.872Z,97631.70
2017-12-13T04:35:50.825Z,97626.03
2017-12-13T04:36:54.059Z,97617.39
2017-12-13T04:37:57.012Z,97615.33
2017-12-13T04:39:00.069Z,97606.63
2017-12-13T04:40:03.014Z,97609.62
2017-12-13T04:41:05.946Z,97612.68
2017-12-13T04:42:09.179Z,97610.45
2017-12-13T04:43:12.080Z,97616.88
2017-12-13T04:44:15.015Z,97604.03
2017-12-13T04:45:17.943Z,97609.50
2017-12-13T04:46:20.873Z,97611.35
2017-12-13T04:47:23.833Z,97598.83
2017-12-13T04:48:27.096Z,97603.83
2017-12-13T04:49:30.054Z,97598.38
2017-12-13T04:50:33.016Z,97600.93
2017-12-13T04:51:35.974Z,97593.25
2017-12-13T04:52:38.945Z,97599.67
2017-12-13T04:53:41.863Z,97589.69
2017-12-13T04:54:45.109Z,97593.14
2017-12-13T04:55:48.106Z,97583.89
2017-12-13T04:56:51.085Z,97585.37
2017-12-13T04:57:54.048Z,97587.30
2017-12-13T04:58:57.016Z,97582.11
2017-12-13T04:59:59.945Z,97581.70
2017-12-13T05:01:03.209Z,97584.59
2017-12-13T05:02:06.124Z,97574.59
2017-12-13T05:03:09.068Z,97587.88
2017-12-13T05:04:12.025Z,97575.06
2017-12-13T05:05:14.978Z,97571.15
2017-12-13T05:06:17.966Z,97583.66
2017-12-13T05:07:20.935Z,97585.17
2017-12-13T05:08:23.977Z,97576.02
2017-12-13T05:09:26.925Z,97576.29
2017-12-13T05:10:29.864Z,97573.25
2017-12-13T05:11:32.859Z,97574.00
2017-12-13T05:12:36.112Z,97574.50
2017-12-13T05:13:39.081Z,97584.02
2017-12-13T05:14:42.026Z,97579.24
2017-12-13T05:15:44.964Z,97581.09
2017-12-13T05:16:47.952Z,97586.44
2017-12-13T05:17:50.913Z,97585.66
2017-12-13T05:18:53.856Z,97588.39
2017-12-13T05:19:56.805Z,97586.49
2017-12-13T05:20:59.725Z,97584.19
2017-12-13T05:22:02.698Z,97590.56
2017-12-13T05:23:05.663Z,97581.30
2017-12-13T05:24:08.850Z,97577.28
2017-12-13T05:25:11.773Z,97571.82
2017-12-13T05:26:14.702Z,97573.57
2017-12-13T05:27:17.715Z,97566.62
2017-12-13T05:28:20.654Z,97575.66
2017-12-13T05:29:23.629Z,97563.84
2017-12-13T05:30:27.032Z,97569.92
2017-12-13T05:31:29.922Z,97571.69
2017-12-13T05:32:32.788Z,97565.00
2017-12-13T05:33:35.640Z,97563.64
2017-12-13T05:34:38.551Z,97568.86
2017-12-13T05:35:41.397Z,97555.65
2017-12-13T05:36:44.663Z,97561.75
2017-12-13T05:37:47.655Z,97562.35
2017-12-13T05:38:50.601Z,97556.19
2017-12-13T05:39:53.572Z,97557.71
2017-12-13T05:40:56.527Z,97555.61
2017-12-13T05:41:59.506Z,97554.30
2017-12-13T05:43:02.982Z,97558.70
2017-12-13T05:44:05.935Z,97549.69
2017-12-13T05:45:08.913Z,97549.69
2017-12-13T05:46:11.970Z,97550.67
2017-12-13T05:47:14.958Z,97548.92
2017-12-13T05:48:17.872Z,97558.56
2017-12-13T05:49:21.119Z,97557.42
2017-12-13T05:50:24.006Z,97555.09
2017-12-13T05:51:26.860Z,97562.80
2017-12-13T05:52:29.716Z,97555.70
2017-12-13T05:53:32.723Z,97566.84
2017-12-13T05:54:35.679Z,97547.39
2017-12-13T05:55:38.921Z,97549.33
2017-12-13T05:56:41.865Z,97540.08
2017-12-13T05:57:44.795Z,97550.48
2017-12-13T05:58:47.744Z,97547.25
2017-12-13T05:59:50.748Z,97537.58
2017-12-13T06:00:53.717Z,97527.62
2017-12-13T06:01:56.936Z,97526.05
2017-12-13T06:02:59.924Z,97525.52
2017-12-13T06:04:03.368Z,97516.86
2017-12-13T06:05:06.258Z,97522.20
2017-12-13T06:06:09.211Z,97520.32
2017-12-13T06:07:12.256Z,97519.73
2017-12-13T06:08:15.628Z,97514.35
2017-12-13T06:09:18.545Z,97517.82
2017-12-13T06:10:21.576Z,97528.01
2017-12-13T06:11:24.511Z,97520.52
2017-12-13T06:12:27.489Z,97524.20
2017-12-13T06:13:30.464Z,97518.20
2017-12-13T06:14:33.431Z,97510.31
2017-12-13T06:15:36.517Z,97516.84
2017-12-13T06:16:39.490Z,97521.09
2017-12-13T06:17:42.459Z,97517.23
2017-12-13T06:18:45.434Z,97520.32
2017-12-13T06:19:48.449Z,97514.56
2017-12-13T06:20:51.888Z,97516.08
2017-12-13T06:21:54.909Z,97517.83
2017-12-13T06:22:57.948Z,97517.63
2017-12-13T06:24:00.943Z,97509.75
2017-12-13T06:25:03.959Z,97507.63
2017-12-13T06:26:08.407Z,97514.02
2017-12-13T06:27:12.011Z,97523.02
2017-12-13T06:28:15.006Z,97504.14
2017-12-13T06:29:17.914Z,97513.61
2017-12-13T06:30:20.843Z,97504.97
2017-12-13T06:31:23.938Z,97506.85
2017-12-13T06:32:26.886Z,97500.12
2017-12-13T06:33:30.180Z,97497.25
2017-12-13T06:34:33.147Z,97496.27
2017-12-13T06:35:36.420Z,97483.58
2017-12-13T06:36:39.395Z,97481.08
2017-12-13T06:37:43.067Z,97485.87
2017-12-13T06:38:45.949Z,97478.59
2017-12-13T06:39:57.772Z,97475.32
2017-12-13T06:41:00.735Z,97477.80
2017-12-13T06:42:03.785Z,97477.59
2017-12-13T06:43:06.776Z,97479.20
2017-12-13T06:44:09.753Z,97473.23
2017-12-13T06:45:12.736Z,97468.41
2017-12-13T06:46:16.080Z,97480.16
2017-12-13T06:47:19.053Z,97473.77
2017-12-13T06:48:22.016Z,97470.33
2017-12-13T06:49:25.003Z,97466.12
2017-12-13T06:50:27.984Z,97463.41
2017-12-13T06:51:30.944Z,97460.33
2017-12-13T06:52:34.312Z,97460.34
2017-12-13T06:53:37.265Z,97464.95
2017-12-13T06:54:40.223Z,97458.80
2017-12-13T06:55:44.063Z,97452.64
2017-12-13T06:56:47.029Z,97457.06
2017-12-13T06:57:49.984Z,97444.20
2017-12-13T06:58:53.384Z,97450.15
2017-12-13T06:59:56.455Z,97449.97
2017-12-13T07:00:59.414Z,97449.02
2017-12-13T07:02:02.476Z,97447.09
2017-12-13T07:03:05.406Z,97439.00
2017-12-13T07:04:08.794Z,97446.90
2017-12-13T07:05:11.734Z,97445.16
2017-12-13T07:06:14.732Z,97440.56
2017-12-13T07:07:17.618Z,97445.55
2017-12-13T07:08:20.615Z,97437.65
2017-12-13T07:09:23.629Z,97444.00
2017-12-13T07:10:26.898Z,97444.77
2017-12-13T07:11:29.860Z,97431.69
2017-12-13T07:12:32.836Z,97426.31
2017-12-13T07:13:35.876Z,97430.52
2017-12-13T07:14:38.806Z,97438.03
2017-12-13T07:15:41.785Z,97424.75
2017-12-13T07:16:45.043Z,97417.83
2017-12-13T07:17:48.018Z,97424.77
2017-12-13T07:18:51.000Z,97423.42
2017-12-13T07:19:54.003Z,97423.23
2017-12-13T07:20:56.969Z,97415.72
2017-12-13T07:21:59.999Z,97417.27
2017-12-13T07:23:03.017Z,97431.52
2017-12-13T07:24:05.910Z,97418.03
2017-12-13T07:25:08.819Z,97405.53
2017-12-13T07:26:11.803Z,97422.44
2017-12-13T07:27:14.823Z,97415.70
2017-12-13T07:28:18.153Z,97413.41
2017-12-13T07:29:21.132Z,97413.02
2017-12-13T07:30:24.119Z,97402.04
2017-12-13T07:31:27.127Z,97422.65
2017-12-13T07:32:30.144Z,97394.92
2017-12-13T07:33:33.837Z,97397.25
2017-12-13T07:34:37.302Z,97394.74
2017-12-13T07:35:40.764Z,97388.02
2017-12-13T07:36:43.719Z,97404.77
2017-12-13T07:37:46.759Z,97404.95
2017-12-13T07:38:49.746Z,97395.72
2017-12-13T07:39:52.816Z,97397.46
2017-12-13T07:40:56.116Z,97408.63
2017-12-13T07:41:59.064Z,97392.84
2017-12-13T07:43:02.070Z,97393.59
2017-12-13T07:44:05.209Z,97406.89
2017-12-13T07:45:08.257Z,97401.87
2017-12-13T07:46:11.164Z,97393.98
2017-12-13T07:47:14.445Z,97406.48
2017-12-13T07:48:17.425Z,97393.80
2017-12-13T07:49:20.604Z,97394.36
2017-12-13T07:50:23.588Z,97399.18
2017-12-13T07:51:26.555Z,97397.45
2017-12-13T07:52:29.568Z,97387.24
2017-12-13T07:53:33.060Z,97389.56
2017-12-13T07:54:36.133Z,97373.97
2017-12-13T07:55:39.087Z,97370.89
2017-12-13T07:56:42.073Z,97382.62
2017-12-13T07:57:45.123Z,97361.84
2017-12-13T07:58:48.142Z,97362.22
2017-12-13T07:59:51.472Z,97372.81
2017-12-13T08:00:54.768Z,97354.53
2017-12-13T08:01:57.754Z,97364.73
2017-12-13T08:03:00.802Z,97352.80
2017-12-13T08:04:03.830Z,97371.86
2017-12-13T08:05:06.783Z,97355.87
2017-12-13T08:06:10.106Z,97343.17
2017-12-13T08:07:13.074Z,97349.31
2017-12-13T08:08:16.259Z,97341.05
2017-12-13T08:09:19.266Z,97339.30
2017-12-13T08:10:22.203Z,97319.27
2017-12-13T08:11:25.115Z,97342.95
2017-12-13T08:12:29.274Z,97329.29
2017-12-13T08:13:32.176Z,97336.61
2017-12-13T08:14:35.300Z,97350.84
2017-12-13T08:15:38.225Z,97326.02
2017-12-13T08:16:41.202Z,97325.63
2017-12-13T08:17:44.132Z,97314.84
2017-12-13T08:18:47.442Z,97329.48
2017-12-13T08:19:50.424Z,97321.98
2017-12-13T08:20:53.423Z,97313.70
2017-12-13T08:21:57.128Z,97321.77
2017-12-13T08:23:00.045Z,97305.22
2017-12-13T08:24:03.032Z,97317.93
2017-12-13T08:25:06.416Z,97312.92
2017-12-13T08:26:09.395Z,97305.41
2017-12-13T08:27:12.327Z,97310.40
2017-12-13T08:28:15.270Z,97296.55
2017-12-13T08:29:18.304Z,97324.28
2017-12-13T08:30:21.268Z,97303.29
2017-12-13T08:31:24.701Z,97292.12
2017-12-13T08:32:27.695Z,97288.44
2017-12-13T08:33:30.631Z,97291.55
2017-12-13T08:34:33.648Z,97289.05
2017-12-13T08:35:36.655Z,97293.47
2017-12-13T08:36:39.764Z,97286.34
2017-12-13T08:37:43.024Z,97288.47
2017-12-13T08:38:46.118Z,97286.92
2017-12-13T08:39:49.130Z,97279.22
2017-12-13T08:40:52.121Z,97275.56
2017-12-13T08:41:55.218Z,97266.89
2017-12-13T08:42:58.251Z,97264.00
2017-12-13T08:44:01.782Z,97266.51
2017-12-13T08:45:04.815Z,97273.45
2017-12-13T08:46:07.859Z,97268.24
2017-12-13T08:47:11.498Z,97253.22
2017-12-13T08:48:14.576Z,97247.64
2017-12-13T08:49:17.739Z,97247.83
2017-12-13T08:50:21.276Z,97243.78
2017-12-13T08:51:24.177Z,97243.79
2017-12-13T08:53:38.156Z,97254.38
2017-12-13T08:54:41.338Z,97246.87
2017-12-13T08:55:44.303Z,97243.20
2017-12-13T08:56:47.595Z,97232.42
2017-12-13T08:57:50.697Z,97246.67
2017-12-13T08:58:53.706Z,97222.80
2017-12-13T08:59:56.841Z,97230.50
2017-12-13T09:00:59.874Z,97225.30
2017-12-13T09:02:02.852Z,97226.65
2017-12-13T09:03:06.295Z,97228.95
2017-12-13T09:04:09.266Z,97210.28
2017-12-13T09:05:12.366Z,97225.69
2017-12-13T09:06:15.335Z,97217.79
2017-12-13T09:07:18.309Z,97209.31
2017-12-13T09:08:21.314Z,97198.34
2017-12-13T09:09:24.797Z,97224.72
2017-12-13T09:10:27.802Z,97213.94
2017-12-13T09:11:30.684Z,97217.41
2017-12-13T09:12:33.816Z,97209.13
2017-12-13T09:13:36.791Z,97206.05
2017-12-13T09:14:39.767Z,97194.11
2017-12-13T09:15:43.258Z,97195.45
2017-12-13T09:16:46.250Z,97210.47
2017-12-13T09:17:49.272Z,97202.97
2017-12-13T09:18:52.256Z,97210.66
2017-12-13T09:19:55.261Z,97213.55
2017-12-13T09:20:58.266Z,97191.64
2017-12-13T09:22:01.691Z,97197.19
2017-12-13T09:23:04.755Z,97184.28
2017-12-13T09:24:07.825Z,97186.40
2017-12-13T09:25:10.901Z,97198.53
2017-12-13T09:26:13.902Z,97184.09
2017-12-13T09:27:16.900Z,97179.42
2017-12-13T09:28:20.369Z,97185.98
2017-12-13T09:29:23.375Z,97178.30
2017-12-13T09:30:26.368Z,97181.39
2017-12-13T09:31:29.775Z,97183.89
2017-12-13T09:32:32.877Z,97185.43
2017-12-13T09:33:35.860Z,97174.07
2017-12-13T09:34:39.283Z,97165.59
2017-12-13T09:35:42.237Z,97175.61
2017-12-13T09:36:45.246Z,97163.28
2017-12-13T09:37:48.289Z,97148.06
2017-12-13T09:38:51.383Z,97173.68
2017-12-13T09:39:54.370Z,97154.23
2017-12-13T09:40:57.756Z,97161.55
2017-12-13T09:42:00.824Z,97150.54
2017-12-13T09:43:03.904Z,97161.94
2017-12-13T09:44:07.094Z,97159.43
2017-12-13T09:45:10.086Z,97162.28
2017-12-13T09:46:13.191Z,97159.02
2017-12-13T09:47:17.834Z,97157.70
2017-12-13T09:48:21.886Z,97138.44
2017-12-13T09:49:25.961Z,97148.66
2017-12-13T09:50:28.908Z,97146.68
2017-12-13T09:51:31.950Z,97154.62
2017-12-13T09:52:35.125Z,97145.19
2017-12-13T09:53:38.528Z,97135.56
2017-12-13T09:54:42.480Z,97142.87
2017-12-13T09:55:45.455Z,97130.16
2017-12-13T09:56:49.017Z,97124.77
2017-12-13T09:57:52.017Z,97127.66
2017-12-13T09:58:57.669Z,97133.39
2017-12-13T10:00:01.016Z,97129.92
2017-12-13T10:01:04.045Z,97133.19
2017-12-13T10:02:07.060Z,97131.27
2017-12-13T10:03:10.253Z,97139.98
2017-12-13T10:04:13.253Z,97126.46
2017-12-13T10:05:16.178Z,97122.42
2017-12-13T10:06:19.407Z,97129.92
2017-12-13T10:07:22.284Z,97130.55
2017-12-13T10:08:25.220Z,97125.89
2017-12-13T10:09:28.242Z,97124.00
2017-12-13T10:10:31.190Z,97138.83
2017-12-13T10:11:34.159Z,97124.96
2017-12-13T10:12:37.675Z,97118.98
2017-12-13T10:13:40.628Z,97108.02
2017-12-13T10:14:43.558Z,97113.75
2017-12-13T10:15:46.552Z,97097.19
2017-12-13T10:16:49.510Z,97095.51
2017-12-13T10:17:52.544Z,97087.22
2017-12-13T10:18:56.027Z,97089.15
2017-12-13T10:19:59.056Z,97093.39
2017-12-13T10:21:02.096Z,97084.34
2017-12-13T10:22:05.048Z,97102.83
2017-12-13T10:23:08.106Z,97076.06
2017-12-13T10:24:11.072Z,97099.41
2017-12-13T10:25:14.327Z,97092.50
2017-12-13T10:26:17.631Z,97084.84
2017-12-13T10:27:20.716Z,97082.92
2017-12-13T10:28:23.745Z,97073.33
2017-12-13T10:29:26.693Z,97082.95
2017-12-13T10:30:30.071Z,97076.23
2017-12-13T10:31:33.463Z,97060.84
2017-12-13T10:32:36.427Z,97059.92
2017-12-13T10:33:39.388Z,97062.61
2017-12-13T10:34:42.491Z,97045.91
2017-12-13T10:35:45.423Z,97056.72
2017-12-13T10:36:48.403Z,97051.88
2017-12-13T10:37:51.694Z,97039.41
2017-12-13T10:38:54.687Z,97031.37
2017-12-13T10:39:57.718Z,97037.33
2017-12-13T10:41:00.777Z,97025.22
2017-12-13T10:42:03.800Z,97021.72
2017-12-13T10:43:06.809Z,97025.80
2017-12-13T10:44:10.179Z,97004.84
2017-12-13T10:45:13.224Z,97004.06
2017-12-13T10:46:16.211Z,97008.30
2017-12-13T10:47:19.247Z,97003.30
2017-12-13T10:48:22.328Z,97002.72
2017-12-13T10:49:25.365Z,96990.80
2017-12-13T10:50:28.836Z,96990.99
2017-12-13T10:51:31.869Z,96992.34
2017-12-13T10:52:34.917Z,96985.80
2017-12-13T10:53:37.978Z,96985.83
2017-12-13T10:54:41.024Z,96964.31
2017-12-13T10:55:44.027Z,96972.19
2017-12-13T10:56:47.363Z,96963.34
2017-12-13T10:57:50.311Z,96956.27
2017-12-13T10:58:53.359Z,96967.03
2017-12-13T10:59:56.313Z,96958.92
2017-12-13T11:00:59.476Z,96948.97
2017-12-13T11:02:02.549Z,96961.07
2017-12-13T11:03:06.025Z,96950.89
2017-12-13T11:04:09.034Z,96944.16
2017-12-13T11:05:12.011Z,96932.05
2017-12-13T11:06:14.994Z,96941.08
2017-12-13T11:07:18.088Z,96936.28
2017-12-13T11:08:21.086Z,96941.44
2017-12-13T11:09:24.473Z,96937.59
2017-12-13T11:10:27.476Z,96933.59
2017-12-13T11:11:30.466Z,96933.97
2017-12-13T11:12:33.458Z,96926.64
2017-12-13T11:13:36.505Z,96917.45
2017-12-13T11:14:39.531Z,96923.21
2017-12-13T11:15:43.010Z,96906.64
2017-12-13T11:16:46.064Z,96907.21
2017-12-13T11:17:49.071Z,96905.49
2017-12-13T11:18:52.211Z,96905.69
2017-12-13T11:19:55.224Z,96908.70
2017-12-13T11:20:58.233Z,96894.91
2017-12-13T11:22:01.618Z,96897.18
2017-12-13T11:23:04.717Z,96900.49
2017-12-13T11:24:07.809Z,96895.69
2017-12-13T11:25:10.792Z,96881.84
2017-12-13T11:26:13.851Z,96870.69
2017-12-13T11:27:16.807Z,96876.02
2017-12-13T11:28:20.284Z,96876.26
2017-12-13T11:29:23.320Z,96872.55
2017-12-13T11:30:26.379Z,96870.06
2017-12-13T11:31:29.801Z,96868.13
2017-12-13T11:32:32.893Z,96855.65
2017-12-13T11:33:37.397Z,96857.42
2017-12-13T11:34:40.864Z,96851.60
2017-12-13T11:35:43.878Z,96848.33
2017-12-13T11:36:46.846Z,96844.87
2017-12-13T11:37:49.799Z,96831.98
2017-12-13T11:38:52.867Z,96835.05
2017-12-13T11:39:55.888Z,96839.50
2017-12-13T11:40:59.280Z,96826.22
2017-12-13T11:42:02.352Z,96827.50
2017-12-13T11:43:05.413Z,96824.31
2017-12-13T11:44:08.453Z,96812.97
2017-12-13T11:45:35.844Z,96811.80
2017-12-13T11:46:39.104Z,96798.47
2017-12-13T11:47:42.098Z,96805.91
2017-12-13T11:48:45.085Z,96798.48
2017-12-13T11:49:48.166Z,96796.55
2017-12-13T11:50:51.199Z,96804.30
2017-12-13T11:51:54.211Z,96799.25
2017-12-13T11:52:57.542Z,96786.38
2017-12-13T11:54:00.566Z,96787.77
2017-12-13T11:55:03.541Z,96781.05
2017-12-13T11:56:06.609Z,96776.64
2017-12-13T11:57:09.638Z,96777.91
2017-12-13T11:58:12.588Z,96763.28
2017-12-13T11:59:16.043Z,96766.55
2017-12-13T12:00:19.058Z,96766.71
2017-12-13T12:01:22.048Z,96759.23
2017-12-13T12:02:25.082Z,96763.08
2017-12-13T12:03:28.001Z,96752.14
2017-12-13T12:04:31.435Z,96746.19
2017-12-13T12:05:34.854Z,96738.16
2017-12-13T12:06:37.818Z,96726.83
2017-12-13T12:07:40.893Z,96738.93
2017-12-13T12:08:44.448Z,96731.92
2017-12-13T12:09:47.530Z,96714.42
2017-12-13T12:10:50.545Z,96726.95
2017-12-13T12:11:53.877Z,96713.50
2017-12-13T12:12:56.993Z,96714.04
2017-12-13T12:14:00.209Z,96701.53
2017-12-13T12:15:03.364Z,96708.16
2017-12-13T12:16:06.385Z,96702.13
2017-12-13T12:17:09.479Z,96699.81
2017-12-13T12:18:12.920Z,96694.64
2017-12-13T12:19:16.055Z,96694.51
2017-12-13T12:20:19.060Z,96698.16
2017-12-13T12:21:22.151Z,96701.90
2017-12-13T12:22:25.168Z,96705.08